Time;durP1;ratioP1;P1;durP2;ratioP2;P2;SDS_P1;SDS_P2;PMS_P1;PMS_P2;Temp;Humidity;BMP_temperature;BMP_pressure;BME280_temperature;BME280_humidity;BME280_pressure;Samples;Min_cycle;Max_cycle;Signal;HPM_P1;HPM_P2
2024/01/07 00:02:18;;;;;;;;;4.00;3.60;;;;;3.43;89.43;99785.81;5096081;28;8826;-58
2024/01/07 00:04:46;;;;;;;;;4.60;4.60;;;;;3.42;88.98;99784.94;5096738;28;8968;-58
2024/01/07 00:07:14;;;;;;;;;6.20;3.20;;;;;3.41;88.91;99780.63;5097416;28;8850;-58
2024/01/07 00:09:42;;;;;;;;;0.80;0.80;;;;;3.39;89.65;99785.13;5097893;28;8919;-59
2024/01/07 00:12:09;;;;;;;;;4.00;4.00;;;;;3.34;88.81;99791.56;5097854;28;8842;-58
2024/01/07 00:14:37;;;;;;;;;4.80;4.80;;;;;3.32;88.89;99794.28;5097676;28;8846;-58
2024/01/07 00:17:05;;;;;;;;;5.00;3.40;;;;;3.32;89.58;99793.44;5097085;28;8822;-58
2024/01/07 00:19:35;;;;;;;;;6.00;5.20;;;;;3.32;89.46;99794.28;5096769;28;8845;-58
2024/01/07 00:22:03;;;;;;;;;3.80;3.00;;;;;3.31;89.30;99792.56;5096626;28;8821;-58
2024/01/07 00:24:31;;;;;;;;;3.80;3.40;;;;;3.31;89.43;99795.19;5096931;28;8830;-58
2024/01/07 00:26:59;;;;;;;;;5.80;5.60;;;;;3.28;89.28;99798.00;5097088;28;9488;-59
2024/01/07 00:29:26;;;;;;;;;8.60;7.40;;;;;3.28;89.28;99794.50;5095220;28;8810;-58
2024/01/07 00:31:54;;;;;;;;;4.40;4.20;;;;;3.28;89.04;99798.00;5096345;28;8833;-58
2024/01/07 00:34:22;;;;;;;;;4.80;4.80;;;;;3.28;89.46;99807.66;5097035;28;8848;-59
2024/01/07 00:36:50;;;;;;;;;6.40;5.60;;;;;3.25;89.16;99807.84;5097410;28;8821;-57
2024/01/07 00:39:17;;;;;;;;;3.60;2.20;;;;;3.19;89.57;99814.25;5097400;28;8840;-58
2024/01/07 00:41:45;;;;;;;;;7.00;6.20;;;;;3.21;89.03;99812.41;5097645;28;8856;-57
2024/01/07 00:44:13;;;;;;;;;9.40;7.00;;;;;3.22;89.67;99814.09;5097077;28;8853;-58
2024/01/07 00:46:41;;;;;;;;;11.20;9.60;;;;;3.18;88.86;99816.97;5097909;28;9518;-58
2024/01/07 00:49:11;;;;;;;;;3.20;3.20;;;;;3.13;89.35;99817.22;5097684;28;8923;-59
2024/01/07 00:51:39;;;;;;;;;9.80;9.00;;;;;3.11;89.78;99818.22;5097312;28;8818;-59
2024/01/07 00:54:07;;;;;;;;;6.40;5.00;;;;;3.10;89.31;99814.72;5097207;28;8838;-57
2024/01/07 00:56:35;;;;;;;;;6.00;6.00;;;;;3.11;89.42;99823.47;5097217;28;8838;-58
2024/01/07 00:59:02;;;;;;;;;9.20;6.40;;;;;3.11;89.15;99819.06;5096376;28;8806;-57
2024/01/07 01:01:30;;;;;;;;;4.00;4.00;;;;;3.10;89.13;99825.25;5097129;28;8834;-57
2024/01/07 01:03:58;;;;;;;;;7.00;6.20;;;;;3.06;89.74;99831.63;5096876;28;8918;-58
2024/01/07 01:06:26;;;;;;;;;4.40;4.40;;;;;3.04;89.20;99832.63;5097069;28;8826;-59
2024/01/07 01:08:54;;;;;;;;;8.20;6.60;;;;;3.03;89.17;99829.13;5097009;28;8830;-58
2024/01/07 01:11:22;;;;;;;;;11.60;8.60;;;;;3.01;89.57;99836.25;5097074;28;8822;-58
2024/01/07 01:13:50;;;;;;;;;6.60;3.40;;;;;3.04;89.75;99845.75;5096915;28;8846;-58
2024/01/07 01:16:17;;;;;;;;;6.40;6.40;;;;;3.03;89.59;99831.75;5096930;28;8826;-57
2024/01/07 01:18:48;;;;;;;;;6.20;6.00;;;;;3.04;90.05;99841.34;5096828;28;8834;-58
2024/01/07 01:21:16;;;;;;;;;10.20;9.00;;;;;3.03;89.59;99844.06;5096665;28;8838;-58
2024/01/07 01:23:44;;;;;;;;;4.80;4.80;;;;;3.01;89.20;99845.91;5096744;28;9530;-58
2024/01/07 01:26:12;;;;;;;;;8.20;8.20;;;;;3.02;89.43;99847.63;5096842;28;8887;-58
2024/01/07 01:28:39;;;;;;;;;6.40;5.60;;;;;2.98;89.29;99848.69;5096547;28;8869;-56
2024/01/07 01:31:08;;;;;;;;;3.40;3.00;;;;;2.98;89.46;99853.97;5096303;28;8830;-58
2024/01/07 01:33:35;;;;;;;;;4.80;3.80;;;;;2.97;89.03;99855.75;5095661;28;8854;-57
2024/01/07 01:36:03;;;;;;;;;8.60;7.00;;;;;2.94;89.37;99858.53;5095859;28;8838;-58
2024/01/07 01:38:31;;;;;;;;;6.40;5.00;;;;;2.91;89.15;99860.44;5094952;28;8822;-58
2024/01/07 01:40:59;;;;;;;;;3.60;3.00;;;;;2.87;89.03;99867.63;5095612;28;8825;-58
2024/01/07 01:43:26;;;;;;;;;10.00;9.60;;;;;2.86;89.21;99870.34;5095575;28;8834;-58
2024/01/07 01:45:54;;;;;;;;;7.80;5.20;;;;;2.85;89.56;99877.38;5095526;28;8818;-58
2024/01/07 01:48:22;;;;;;;;;8.60;7.40;;;;;2.83;89.39;99873.13;5095403;28;8960;-59
2024/01/07 01:50:50;;;;;;;;;8.20;6.60;;;;;2.81;89.00;99873.19;5095369;28;8846;-58
2024/01/07 01:53:18;;;;;;;;;7.60;7.00;;;;;2.81;89.80;99875.00;5094865;28;8832;-58
2024/01/07 01:55:45;;;;;;;;;7.40;6.60;;;;;2.82;89.32;99874.06;5095747;28;8822;-58
2024/01/07 01:58:13;;;;;;;;;10.80;9.60;;;;;2.85;89.89;99876.53;5095904;28;8810;-57
2024/01/07 02:00:42;;;;;;;;;10.40;9.40;;;;;2.87;89.59;99879.94;5096261;28;8830;-59
2024/01/07 02:03:09;;;;;;;;;5.80;5.80;;;;;2.86;89.80;99881.72;5096128;28;8833;-56
2024/01/07 02:05:37;;;;;;;;;13.80;13.40;;;;;2.87;89.14;99879.94;5095360;28;8956;-59
2024/01/07 02:08:05;;;;;;;;;8.60;8.60;;;;;2.86;89.70;99879.09;5096659;28;8830;-59
2024/01/07 02:10:34;;;;;;;;;12.00;10.60;;;;;2.87;89.14;99891.31;5096773;28;8845;-59
2024/01/07 02:13:02;;;;;;;;;11.60;9.80;;;;;2.87;89.08;99891.31;5095714;28;8956;-58
2024/01/07 02:15:30;;;;;;;;;9.60;7.40;;;;;2.85;89.61;99890.53;5095871;28;8826;-58
2024/01/07 02:17:59;;;;;;;;;6.00;5.20;;;;;2.82;88.97;99889.84;5095878;28;8828;-59
2024/01/07 02:20:27;;;;;;;;;8.80;8.80;;;;;2.77;89.22;99894.44;5095472;28;8818;-58
2024/01/07 02:22:57;;;;;;;;;10.40;9.00;;;;;2.75;89.46;99902.44;5094973;28;8844;-58
2024/01/07 02:25:25;;;;;;;;;7.00;7.00;;;;;2.75;89.16;99907.69;5094812;28;8856;-59
2024/01/07 02:27:52;;;;;;;;;10.00;6.20;;;;;2.76;89.88;99904.13;5094763;28;9009;-58
2024/01/07 02:30:20;;;;;;;;;6.00;6.00;;;;;2.78;89.27;99902.28;5095451;28;8846;-56
2024/01/07 02:32:48;;;;;;;;;9.00;7.80;;;;;2.83;90.02;99905.53;5095289;28;8822;-59
2024/01/07 02:35:16;;;;;;;;;9.40;9.40;;;;;2.87;89.75;99914.13;5094777;28;8846;-59
2024/01/07 02:37:44;;;;;;;;;10.40;9.60;;;;;2.87;89.32;99912.34;5094326;28;8802;-58
2024/01/07 02:40:12;;;;;;;;;13.00;12.00;;;;;2.88;89.05;99914.03;5095162;28;8810;-58
2024/01/07 02:42:39;;;;;;;;;3.20;3.00;;;;;2.87;89.80;99919.38;5094783;28;8861;-58
2024/01/07 02:45:07;;;;;;;;;8.60;6.20;;;;;2.86;89.20;99913.25;5095733;28;8853;-59
2024/01/07 02:47:35;;;;;;;;;5.40;5.40;;;;;2.86;89.13;99915.91;5095705;28;8828;-59
2024/01/07 02:50:03;;;;;;;;;10.20;10.20;;;;;2.84;89.05;99917.75;5095332;28;8853;-58
2024/01/07 02:52:30;;;;;;;;;12.80;12.00;;;;;2.85;89.63;99918.59;5094062;28;8818;-59
2024/01/07 02:54:58;;;;;;;;;8.20;8.20;;;;;2.86;89.71;99915.03;5094918;28;8819;-58
2024/01/07 02:57:26;;;;;;;;;10.00;9.00;;;;;2.86;89.35;99918.53;5093847;28;8903;-59
2024/01/07 02:59:54;;;;;;;;;11.60;11.20;;;;;2.86;89.17;99920.28;5098800;28;8870;-58
2024/01/07 03:02:22;;;;;;;;;5.60;5.60;;;;;2.86;89.26;99930.81;5099606;28;8822;-59
2024/01/07 03:04:50;;;;;;;;;10.00;9.00;;;;;2.85;89.36;99922.09;5099806;28;8826;-58
2024/01/07 03:07:18;;;;;;;;;6.00;3.40;;;;;2.83;89.08;99933.59;5099006;28;8836;-58
2024/01/07 03:09:45;;;;;;;;;11.40;9.20;;;;;2.83;89.11;99930.97;5099109;28;8821;-58
2024/01/07 03:12:15;;;;;;;;;7.60;4.20;;;;;2.83;89.60;99929.19;5099320;28;8822;-58
2024/01/07 03:14:42;;;;;;;;;10.80;9.60;;;;;2.84;89.43;99930.03;5099388;28;8846;-57
2024/01/07 03:17:10;;;;;;;;;7.00;6.20;;;;;2.79;88.99;99930.25;5099623;28;8814;-59
2024/01/07 03:19:38;;;;;;;;;9.60;8.20;;;;;2.77;89.06;99932.13;5099306;28;8821;-59
2024/01/07 03:22:07;;;;;;;;;6.40;6.20;;;;;2.75;89.59;99936.63;5098792;28;8837;-59
2024/01/07 03:24:34;;;;;;;;;7.00;6.60;;;;;2.70;89.39;99938.59;5098300;28;9484;-60
2024/01/07 03:27:02;;;;;;;;;8.80;7.80;;;;;2.69;89.68;99949.16;5098724;28;8834;-59
2024/01/07 03:29:30;;;;;;;;;8.20;7.80;;;;;2.68;89.66;99948.34;5097436;28;8802;-59
2024/01/07 03:31:57;;;;;;;;;3.20;3.00;;;;;2.67;89.53;99943.16;5098307;28;8829;-59
2024/01/07 03:34:25;;;;;;;;;9.20;9.20;;;;;2.64;89.48;99951.19;5097874;28;9730;-59
2024/01/07 03:36:53;;;;;;;;;10.20;9.20;;;;;2.63;89.07;99949.47;5098166;28;8868;-59
2024/01/07 03:39:21;;;;;;;;;8.60;7.00;;;;;2.61;89.58;99957.44;5098220;28;8834;-58
2024/01/07 03:41:49;;;;;;;;;6.20;4.60;;;;;2.64;89.22;99945.94;5098087;28;9511;-58
2024/01/07 03:44:17;;;;;;;;;13.40;7.40;;;;;2.62;89.49;99948.63;5098659;28;8866;-59
2024/01/07 03:46:45;;;;;;;;;11.00;10.60;;;;;2.64;89.13;99957.28;5098066;28;8826;-59
2024/01/07 03:49:12;;;;;;;;;9.40;8.20;;;;;2.64;89.24;99957.28;5097799;28;8836;-58
2024/01/07 03:51:40;;;;;;;;;10.80;9.40;;;;;2.61;89.02;99959.19;5097547;28;8818;-58
2024/01/07 03:54:08;;;;;;;;;2.20;2.20;;;;;2.54;89.56;99958.66;5097290;28;8818;-59
2024/01/07 03:56:35;;;;;;;;;12.60;11.60;;;;;2.50;89.46;99958.88;5097421;28;8810;-59
2024/01/07 03:59:03;;;;;;;;;11.00;10.00;;;;;2.47;89.09;99959.00;5097266;28;8944;-59
2024/01/07 04:01:31;;;;;;;;;10.60;10.00;;;;;2.48;89.19;99971.19;5097747;28;8896;-57
2024/01/07 04:03:59;;;;;;;;;7.00;6.00;;;;;2.50;89.61;99978.09;5097178;28;8899;-58
2024/01/07 04:06:27;;;;;;;;;5.80;5.80;;;;;2.52;89.03;99978.91;5097926;28;8830;-59
2024/01/07 04:08:54;;;;;;;;;12.40;9.60;;;;;2.51;88.93;99976.34;5098079;28;8914;-59
2024/01/07 04:11:22;;;;;;;;;2.20;2.20;;;;;2.48;89.09;99986.97;5097184;28;8915;-58
2024/01/07 04:13:50;;;;;;;;;7.80;7.40;;;;;2.43;89.44;99979.31;5098061;28;8834;-59
2024/01/07 04:16:19;;;;;;;;;10.80;8.80;;;;;2.42;88.96;99980.22;5097091;28;8810;-58
2024/01/07 04:18:46;;;;;;;;;8.80;8.60;;;;;2.40;89.02;99982.09;5097172;28;9651;-59
2024/01/07 04:21:20;;;;;;;;;1.40;1.00;;;;;2.39;89.59;99983.00;5098218;28;8817;-58
2024/01/07 04:23:48;;;;;;;;;5.20;4.00;;;;;2.38;89.53;99990.94;5097785;28;8856;-58
2024/01/07 04:26:16;;;;;;;;;7.80;7.00;;;;;2.39;89.96;99995.28;5098285;28;9483;-59
2024/01/07 04:28:44;;;;;;;;;6.00;6.00;;;;;2.35;89.47;99994.56;5097900;28;8814;-59
2024/01/07 04:31:11;;;;;;;;;9.00;8.20;;;;;2.36;89.70;99993.63;5096523;28;8864;-58
2024/01/07 04:33:39;;;;;;;;;8.20;7.80;;;;;2.34;89.65;99998.13;5097068;28;8830;-59
2024/01/07 04:36:07;;;;;;;;;11.20;9.60;;;;;2.34;89.62;100008.63;5097169;28;8818;-57
2024/01/07 04:38:34;;;;;;;;;7.80;7.80;;;;;2.33;89.85;100011.31;5098004;28;8818;-58
2024/01/07 04:41:02;;;;;;;;;9.00;7.00;;;;;2.30;89.32;100007.06;5097599;28;8830;-56
2024/01/07 04:43:29;;;;;;;;;9.40;9.40;;;;;2.26;89.61;100010.75;5097558;28;8846;-56
2024/01/07 04:45:57;;;;;;;;;9.20;8.60;;;;;2.28;89.60;100011.53;5097770;28;9495;-57
2024/01/07 04:48:25;;;;;;;;;6.40;6.20;;;;;2.30;89.65;100016.72;5097402;28;8828;-57
2024/01/07 04:50:52;;;;;;;;;3.40;3.40;;;;;2.28;89.67;100016.78;5097725;28;8929;-56
2024/01/07 04:53:20;;;;;;;;;7.40;7.00;;;;;2.28;89.21;100010.69;5097630;28;8902;-56
2024/01/07 04:55:47;;;;;;;;;9.80;9.00;;;;;2.29;89.78;100018.47;5096340;28;8846;-56
2024/01/07 04:58:15;;;;;;;;;3.20;3.00;;;;;2.29;89.87;100018.47;5095455;28;8818;-58
2024/01/07 05:00:43;;;;;;;;;6.20;6.00;;;;;2.29;89.66;100021.09;5096329;28;8829;-59
2024/01/07 05:03:11;;;;;;;;;8.20;7.40;;;;;2.29;89.53;100025.53;5097128;28;8822;-56
2024/01/07 05:05:39;;;;;;;;;3.60;3.00;;;;;2.28;89.25;100027.28;5097249;28;8846;-57
2024/01/07 05:08:07;;;;;;;;;9.60;9.40;;;;;2.22;88.82;100038.09;5097254;28;8864;-57
2024/01/07 05:10:35;;;;;;;;;8.60;7.40;;;;;2.21;89.53;100036.34;5096989;28;8833;-56
2024/01/07 05:13:05;;;;;;;;;12.40;9.80;;;;;2.21;89.18;100036.34;5096297;28;9531;-56
2024/01/07 05:15:33;;;;;;;;;6.80;6.40;;;;;2.22;89.58;100040.72;5095401;28;8902;-56
2024/01/07 05:18:01;;;;;;;;;7.60;5.60;;;;;2.22;88.86;100048.59;5096786;28;8818;-58
2024/01/07 05:20:29;;;;;;;;;11.60;9.40;;;;;2.21;89.10;100052.13;5096745;28;8825;-56
2024/01/07 05:22:56;;;;;;;;;8.60;7.40;;;;;2.22;89.10;100048.59;5095778;28;8821;-59
2024/01/07 05:25:24;;;;;;;;;6.80;6.80;;;;;2.22;89.87;100048.59;5096663;28;8821;-56
2024/01/07 05:27:51;;;;;;;;;8.60;7.20;;;;;2.24;88.80;100046.75;5095599;28;8834;-57
2024/01/07 05:30:19;;;;;;;;;7.80;7.00;;;;;2.23;89.20;100050.28;5095495;28;8834;-57
2024/01/07 05:32:47;;;;;;;;;8.40;8.20;;;;;2.23;89.37;100058.19;5095991;28;8830;-56
2024/01/07 05:35:14;;;;;;;;;13.20;12.20;;;;;2.26;89.63;100063.28;5096658;28;8890;-56
2024/01/07 05:37:42;;;;;;;;;12.00;9.60;;;;;2.26;88.88;100065.06;5096771;28;8840;-56
2024/01/07 05:40:10;;;;;;;;;10.80;10.00;;;;;2.26;89.65;100076.41;5096451;28;8822;-57
2024/01/07 05:42:38;;;;;;;;;9.20;7.40;;;;;2.28;88.89;100074.56;5095706;28;8815;-56
2024/01/07 05:45:05;;;;;;;;;1.00;1.00;;;;;2.30;89.59;100077.13;5095430;28;8830;-56
2024/01/07 05:47:33;;;;;;;;;6.00;6.00;;;;;2.31;89.64;100077.06;5095870;28;8877;-58
2024/01/07 05:50:02;;;;;;;;;9.00;9.00;;;;;2.34;89.68;100076.94;5095743;28;8834;-56
2024/01/07 05:52:29;;;;;;;;;12.20;9.40;;;;;2.36;89.37;100080.34;5096034;28;8818;-57
2024/01/07 05:54:59;;;;;;;;;7.80;7.80;;;;;2.37;89.46;100084.69;5095098;28;8842;-56
2024/01/07 05:57:26;;;;;;;;;12.80;9.40;;;;;2.36;88.74;100082.97;5096038;28;8887;-57
2024/01/07 05:59:54;;;;;;;;;5.60;4.80;;;;;2.37;89.45;100083.81;5096354;28;8846;-57
2024/01/07 06:02:22;;;;;;;;;14.60;12.40;;;;;2.38;89.29;100090.78;5094925;28;8826;-56
2024/01/07 06:04:50;;;;;;;;;5.40;5.20;;;;;2.38;89.37;100089.03;5095438;28;8818;-57
2024/01/07 06:07:18;;;;;;;;;9.40;9.40;;;;;2.38;89.36;100088.16;5094730;28;8907;-56
2024/01/07 06:09:45;;;;;;;;;9.40;7.40;;;;;2.37;89.73;100095.19;5094708;28;8957;-58
2024/01/07 06:12:13;;;;;;;;;9.40;9.40;;;;;2.36;89.17;100103.97;5095042;28;9568;-56
2024/01/07 06:14:40;;;;;;;;;9.80;8.60;;;;;2.37;89.28;100117.97;5095351;28;8838;-58
2024/01/07 06:17:08;;;;;;;;;6.40;4.40;;;;;2.38;88.82;100112.66;5094911;28;8833;-57
2024/01/07 06:19:36;;;;;;;;;7.40;6.40;;;;;2.43;89.12;100115.09;5094535;28;8851;-58
2024/01/07 06:22:04;;;;;;;;;13.40;9.60;;;;;2.43;88.87;100121.19;5095618;28;9483;-57
2024/01/07 06:24:31;;;;;;;;;9.80;8.40;;;;;2.44;89.67;100122.03;5095529;28;8834;-56
2024/01/07 06:26:59;;;;;;;;;12.80;12.60;;;;;2.44;89.35;100122.88;5096584;28;8948;-59
2024/01/07 06:29:27;;;;;;;;;10.20;8.60;;;;;2.43;89.41;100131.69;5094295;28;8802;-56
2024/01/07 06:31:55;;;;;;;;;6.00;5.40;;;;;2.41;89.67;100133.53;5095840;28;8830;-56
2024/01/07 06:34:23;;;;;;;;;10.00;8.40;;;;;2.39;88.84;100138.00;5098576;28;8852;-56
2024/01/07 06:36:50;;;;;;;;;7.80;6.20;;;;;2.36;88.77;100145.19;5099269;28;8834;-56
2024/01/07 06:39:18;;;;;;;;;18.20;10.40;;;;;2.32;89.36;100154.97;5099255;28;8822;-57
2024/01/07 06:41:46;;;;;;;;;9.00;8.60;;;;;2.30;88.78;100156.81;5099352;28;8837;-56
2024/01/07 06:44:13;;;;;;;;;8.00;7.80;;;;;2.29;88.88;100157.69;5099084;28;8927;-56
2024/01/07 06:46:41;;;;;;;;;8.40;7.80;;;;;2.26;89.38;100165.72;5099237;28;8830;-58
2024/01/07 06:49:09;;;;;;;;;10.00;9.20;;;;;2.25;89.24;100168.41;5099768;28;8823;-56
2024/01/07 06:51:37;;;;;;;;;7.40;7.00;;;;;2.23;89.20;100167.63;5099395;28;8815;-57
2024/01/07 06:54:03;;;;;;;;;7.60;6.00;;;;;2.21;89.14;100174.72;5098317;28;8872;-58
2024/01/07 06:56:31;;;;;;;;;6.40;6.00;;;;;2.20;89.48;100175.66;5098298;28;8830;-56
2024/01/07 06:58:59;;;;;;;;;9.00;9.00;;;;;2.19;89.13;100174.78;5098057;28;8834;-56
2024/01/07 07:01:27;;;;;;;;;9.00;7.00;;;;;2.20;89.49;100183.53;5098692;28;8834;-56
2024/01/07 07:03:54;;;;;;;;;1.00;1.00;;;;;2.17;89.46;100176.63;5098565;28;8856;-58
2024/01/07 07:06:22;;;;;;;;;8.60;6.80;;;;;2.20;88.77;100194.03;5098841;28;8810;-57
2024/01/07 07:08:50;;;;;;;;;6.00;6.00;;;;;2.18;89.47;100186.19;5098596;28;8842;-58
2024/01/07 07:11:17;;;;;;;;;6.00;5.60;;;;;2.15;89.20;100191.59;5099178;28;8850;-58
2024/01/07 07:13:45;;;;;;;;;2.80;2.20;;;;;2.14;88.78;100195.13;5099179;28;8849;-56
2024/01/07 07:16:13;;;;;;;;;6.40;6.20;;;;;2.14;89.19;100210.03;5099040;28;8825;-56
2024/01/07 07:18:40;;;;;;;;;6.40;5.20;;;;;2.13;89.12;100209.16;5099197;28;8834;-56
2024/01/07 07:21:08;;;;;;;;;6.80;6.80;;;;;2.13;88.92;100206.53;5099232;28;8818;-57
2024/01/07 07:23:36;;;;;;;;;6.20;5.60;;;;;2.13;89.38;100213.59;5097897;28;8856;-56
2024/01/07 07:26:03;;;;;;;;;9.40;7.80;;;;;2.12;89.08;100222.38;5098241;28;8841;-57
2024/01/07 07:28:31;;;;;;;;;6.20;3.60;;;;;2.10;88.68;100226.81;5099055;28;8829;-57
2024/01/07 07:30:58;;;;;;;;;6.00;5.20;;;;;2.05;89.02;100234.88;5098977;28;8809;-58
2024/01/07 07:33:27;;;;;;;;;4.00;4.00;;;;;2.01;88.79;100233.31;5097800;28;8822;-58
2024/01/07 07:35:54;;;;;;;;;7.00;6.80;;;;;1.96;88.46;100239.69;5098395;28;8933;-59
2024/01/07 07:38:22;;;;;;;;;8.40;6.20;;;;;1.93;89.06;100245.03;5098053;28;8830;-59
2024/01/07 07:40:52;;;;;;;;;4.40;4.40;;;;;1.90;88.70;100253.88;5096632;28;8810;-58
2024/01/07 07:43:21;;;;;;;;;6.40;4.40;;;;;1.87;88.80;100253.16;5096359;28;8866;-58
2024/01/07 07:45:49;;;;;;;;;6.00;6.00;;;;;1.84;88.93;100256.78;5097267;28;8818;-59
2024/01/07 07:48:17;;;;;;;;;5.20;5.20;;;;;1.83;88.95;100268.16;5097796;28;8928;-59
2024/01/07 07:50:44;;;;;;;;;3.80;3.80;;;;;1.82;88.50;100263.84;5097568;28;8868;-59
2024/01/07 07:53:12;;;;;;;;;5.60;4.40;;;;;1.81;88.54;100267.38;5098309;28;8846;-58
2024/01/07 07:55:40;;;;;;;;;6.00;5.60;;;;;1.77;88.76;100276.31;5097653;28;8849;-56
2024/01/07 07:58:08;;;;;;;;;3.60;3.00;;;;;1.73;88.83;100282.56;5097988;28;8810;-58
2024/01/07 08:00:35;;;;;;;;;4.80;4.80;;;;;1.69;88.52;100288.88;5097597;28;8849;-56
2024/01/07 08:03:03;;;;;;;;;5.00;2.60;;;;;1.65;88.33;100295.13;5097701;28;8859;-56
2024/01/07 08:05:31;;;;;;;;;6.00;6.00;;;;;1.62;88.96;100299.63;5096746;28;8846;-56
2024/01/07 08:07:59;;;;;;;;;6.40;4.00;;;;;1.60;88.88;100302.31;5097289;28;8822;-56
2024/01/07 08:10:28;;;;;;;;;3.00;3.00;;;;;1.60;88.51;100310.19;5097893;28;8822;-56
2024/01/07 08:12:56;;;;;;;;;9.60;7.80;;;;;1.57;88.30;100307.69;5097405;28;8834;-57
2024/01/07 08:15:24;;;;;;;;;8.80;7.40;;;;;1.57;89.10;100320.81;5097486;28;8830;-56
2024/01/07 08:17:51;;;;;;;;;8.60;6.00;;;;;1.56;88.46;100323.47;5097829;28;8837;-58
2024/01/07 08:20:19;;;;;;;;;8.40;7.00;;;;;1.54;88.65;100315.69;5098287;28;9479;-57
2024/01/07 08:22:48;;;;;;;;;6.60;4.00;;;;;1.55;89.16;100322.63;5097994;28;8814;-56
2024/01/07 08:25:15;;;;;;;;;6.60;4.80;;;;;1.55;89.18;100327.88;5097083;28;8826;-57
2024/01/07 08:27:43;;;;;;;;;7.00;6.00;;;;;1.57;88.82;100327.81;5096728;28;8915;-58
2024/01/07 08:30:13;;;;;;;;;4.80;4.40;;;;;1.55;88.82;100330.50;5095719;28;8836;-57
2024/01/07 08:32:41;;;;;;;;;1.00;0.60;;;;;1.54;89.06;100334.06;5096991;28;9502;-56
2024/01/07 08:35:09;;;;;;;;;2.60;2.60;;;;;1.54;88.97;100336.69;5097101;28;8897;-57
2024/01/07 08:37:36;;;;;;;;;2.20;2.20;;;;;1.54;89.18;100341.06;5096911;28;8864;-57
2024/01/07 08:40:04;;;;;;;;;4.40;4.00;;;;;1.50;89.05;100349.94;5097275;28;8857;-56
2024/01/07 08:42:31;;;;;;;;;6.60;5.60;;;;;1.50;88.46;100355.19;5096802;28;8825;-58
2024/01/07 08:45:00;;;;;;;;;7.00;7.00;;;;;1.50;88.32;100360.44;5096819;28;8949;-58
2024/01/07 08:47:30;;;;;;;;;6.00;6.00;;;;;1.49;88.76;100363.97;5097011;28;8822;-58
2024/01/07 08:50:03;;;;;;;;;6.20;5.20;;;;;1.49;88.77;100379.72;5089162;28;8822;-58
2024/01/07 08:52:31;;;;;;;;;7.60;6.80;;;;;1.49;88.60;100375.34;5096195;28;8822;-56
2024/01/07 08:54:58;;;;;;;;;6.00;6.00;;;;;1.49;88.38;100377.97;5095186;28;8826;-56
2024/01/07 08:57:26;;;;;;;;;6.00;4.80;;;;;1.50;88.92;100392.78;5097005;28;8822;-56
2024/01/07 08:59:54;;;;;;;;;5.60;5.60;;;;;1.48;88.12;100384.13;5095540;28;8810;-56
2024/01/07 09:02:21;;;;;;;;;6.00;6.00;;;;;1.51;88.62;100389.25;5096771;28;8818;-56
2024/01/07 09:04:49;;;;;;;;;6.40;6.00;;;;;1.51;88.81;100389.25;5097091;28;8814;-56
2024/01/07 09:07:17;;;;;;;;;3.20;3.20;;;;;1.51;88.64;100391.88;5096166;28;8904;-56
2024/01/07 09:09:44;;;;;;;;;6.00;5.20;;;;;1.49;87.88;100395.44;5096981;28;8822;-58
2024/01/07 09:12:12;;;;;;;;;9.20;8.20;;;;;1.46;88.29;100401.66;5096648;28;8822;-57
2024/01/07 09:14:40;;;;;;;;;5.80;5.60;;;;;1.45;87.73;100397.31;5096594;28;9674;-57
2024/01/07 09:17:07;;;;;;;;;3.00;3.00;;;;;1.45;87.79;100405.19;5096372;28;8944;-56
2024/01/07 09:19:35;;;;;;;;;7.40;7.00;;;;;1.46;88.53;100409.53;5095573;28;9557;-58
2024/01/07 09:22:03;;;;;;;;;4.80;2.20;;;;;1.46;87.83;100413.94;5095926;28;8836;-56
2024/01/07 09:24:30;;;;;;;;;3.40;3.40;;;;;1.47;88.04;100410.41;5096300;28;8821;-56
2024/01/07 09:26:58;;;;;;;;;7.80;6.60;;;;;1.46;88.34;100419.19;5096306;28;8822;-56
2024/01/07 09:29:27;;;;;;;;;4.80;4.80;;;;;1.43;88.32;100416.66;5096142;28;8810;-56
2024/01/07 09:31:54;;;;;;;;;9.00;7.80;;;;;1.42;87.68;100420.19;5096634;28;8826;-59
2024/01/07 09:34:23;;;;;;;;;3.20;3.20;;;;;1.42;87.70;100421.06;5096658;28;9515;-56
2024/01/07 09:36:51;;;;;;;;;5.20;5.20;;;;;1.41;88.06;100424.59;5096615;28;8829;-57
2024/01/07 09:39:20;;;;;;;;;4.00;4.00;;;;;1.43;88.10;100435.88;5096601;28;8822;-58
2024/01/07 09:41:48;;;;;;;;;3.80;3.80;;;;;1.45;87.61;100423.56;5096538;28;8940;-57
2024/01/07 09:44:16;;;;;;;;;2.60;1.00;;;;;1.45;87.83;100420.94;5096682;28;8971;-59
2024/01/07 09:46:44;;;;;;;;;4.00;3.60;;;;;1.46;87.26;100432.28;5096360;28;8834;-57
2024/01/07 09:49:12;;;;;;;;;1.00;1.00;;;;;1.46;87.26;100433.13;5096451;28;9503;-58
2024/01/07 09:51:40;;;;;;;;;6.60;6.20;;;;;1.46;87.30;100433.13;5096248;28;8873;-57
2024/01/07 09:54:09;;;;;;;;;7.00;7.00;;;;;1.48;87.17;100436.59;5095909;28;8968;-57
2024/01/07 09:56:39;;;;;;;;;4.40;4.40;;;;;1.47;87.37;100434.88;5096040;28;9495;-59
2024/01/07 09:59:06;;;;;;;;;2.80;2.80;;;;;1.47;87.50;100434.88;5095169;28;8818;-58
2024/01/07 10:01:35;;;;;;;;;3.80;3.60;;;;;1.46;87.01;100435.75;5095334;28;8849;-59
2024/01/07 10:04:03;;;;;;;;;6.20;4.40;;;;;1.48;87.33;100436.59;5093742;28;8807;-58
2024/01/07 10:06:31;;;;;;;;;6.00;5.40;;;;;1.50;87.39;100440.00;5095955;28;9495;-56
2024/01/07 10:08:59;;;;;;;;;3.20;3.20;;;;;1.52;86.79;100438.19;5094914;28;8830;-59
2024/01/07 10:11:26;;;;;;;;;1.80;1.80;;;;;1.51;86.82;100438.25;5095835;28;8822;-57
2024/01/07 10:13:54;;;;;;;;;4.60;4.20;;;;;1.52;86.34;100443.44;5095660;28;8862;-59
2024/01/07 10:16:22;;;;;;;;;3.40;3.40;;;;;1.56;86.50;100444.16;5095586;28;8830;-56
2024/01/07 10:18:50;;;;;;;;;4.20;3.80;;;;;1.56;86.94;100446.78;5095673;28;8817;-59
2024/01/07 10:21:18;;;;;;;;;2.20;1.00;;;;;1.55;86.09;100450.34;5095978;28;8842;-57
2024/01/07 10:23:46;;;;;;;;;7.80;7.00;;;;;1.54;86.48;100462.63;5095665;28;8858;-57
2024/01/07 10:26:12;;;;;;;;;5.20;5.20;;;;;1.55;86.59;100459.06;5095707;28;8826;-58
2024/01/07 10:28:54;;;;;;;;;3.60;3.00;;;;;1.59;86.96;100452.78;5095563;28;8829;-58
2024/01/07 10:31:22;;;;;;;;;3.00;3.00;;;;;1.58;85.98;100458.97;5095841;28;8836;-58
2024/01/07 10:33:50;;;;;;;;;3.00;2.60;;;;;1.55;86.21;100453.84;5095554;28;8853;-57
2024/01/07 10:36:17;;;;;;;;;3.40;2.60;;;;;1.55;86.42;100453.84;5095756;28;8948;-57
2024/01/07 10:38:45;;;;;;;;;3.00;3.00;;;;;1.57;86.32;100456.38;5095692;28;8846;-58
2024/01/07 10:41:12;;;;;;;;;5.20;5.20;;;;;1.59;86.23;100462.44;5095697;28;8841;-58
2024/01/07 10:43:41;;;;;;;;;4.60;3.80;;;;;1.58;85.89;100458.09;5096128;28;8831;-57
2024/01/07 10:46:09;;;;;;;;;6.00;6.00;;;;;1.58;85.68;100464.19;5095701;28;8957;-59
2024/01/07 10:48:37;;;;;;;;;4.00;4.00;;;;;1.59;85.68;100471.16;5096019;28;8833;-57
2024/01/07 10:51:05;;;;;;;;;1.00;0.80;;;;;1.61;85.88;100466.72;5095047;28;8919;-59
2024/01/07 10:53:33;;;;;;;;;3.00;1.00;;;;;1.65;85.24;100472.72;5095706;28;8838;-57
2024/01/07 10:56:00;;;;;;;;;3.00;3.00;;;;;1.69;85.15;100483.06;5095367;28;8822;-58
2024/01/07 10:58:28;;;;;;;;;3.60;3.00;;;;;1.72;85.30;100488.19;5094636;28;8834;-58
2024/01/07 11:00:56;;;;;;;;;3.60;3.60;;;;;1.74;85.36;100490.78;5092225;28;9502;-58
2024/01/07 11:03:24;;;;;;;;;4.00;3.20;;;;;1.71;84.66;100475.13;5094601;28;8969;-59
2024/01/07 11:05:53;;;;;;;;;2.60;2.60;;;;;1.70;84.89;100474.28;5094848;28;8848;-59
2024/01/07 11:08:22;;;;;;;;;2.60;2.60;;;;;1.68;84.82;100478.72;5095007;28;8924;-57
2024/01/07 11:10:49;;;;;;;;;4.00;4.00;;;;;1.68;85.02;100488.38;5095001;28;8829;-59
2024/01/07 11:13:20;;;;;;;;;1.80;1.80;;;;;1.66;85.41;100483.16;5094447;28;8907;-58
2024/01/07 11:15:47;;;;;;;;;3.00;1.80;;;;;1.63;85.11;100493.78;5093195;28;8826;-57
2024/01/07 11:18:15;;;;;;;;;3.60;3.00;;;;;1.60;84.50;100493.88;5093971;28;8844;-57
2024/01/07 11:20:43;;;;;;;;;2.00;1.80;;;;;1.62;84.62;100497.31;5097435;28;8834;-59
2024/01/07 11:23:11;;;;;;;;;5.20;4.80;;;;;1.60;85.01;100488.63;5097709;28;8952;-57
2024/01/07 11:25:39;;;;;;;;;4.00;3.60;;;;;1.56;84.65;100494.91;5098031;28;8814;-57
2024/01/07 11:28:07;;;;;;;;;4.80;3.80;;;;;1.57;84.93;100493.13;5093105;28;8812;-58
2024/01/07 11:30:34;;;;;;;;;2.60;1.80;;;;;1.51;84.38;100502.06;5094718;28;8923;-58
2024/01/07 11:33:02;;;;;;;;;0.20;0.20;;;;;1.49;84.41;100495.16;5098584;28;8849;-57
2024/01/07 11:35:30;;;;;;;;;0.40;0.40;;;;;1.45;84.47;100501.41;5098231;28;8845;-56
2024/01/07 11:37:57;;;;;;;;;5.60;4.00;;;;;1.44;84.62;100503.16;5098418;28;8953;-57
2024/01/07 11:40:25;;;;;;;;;1.00;1.00;;;;;1.43;84.67;100503.22;5098427;28;8822;-58
2024/01/07 11:42:53;;;;;;;;;4.00;3.40;;;;;1.41;84.06;100512.91;5098232;28;8858;-56
2024/01/07 11:45:22;;;;;;;;;3.00;1.00;;;;;1.39;84.31;100510.38;5098601;28;8842;-57
2024/01/07 11:47:49;;;;;;;;;1.40;1.00;;;;;1.37;84.47;100509.53;5098606;28;8825;-58